Time;durP1;ratioP1;P1;durP2;ratioP2;P2;SDS_P1;SDS_P2;PMS_P1;PMS_P2;Temp;Humidity;BMP_temperature;BMP_pressure;BME280_temperature;BME280_humidity;BME280_pressure;Samples;Min_cycle;Max_cycle;Signal;HPM_P1;HPM_P2
2022/12/03 00:00:07;;;;;;;69.78;20.58;;;;;;;;;;5053244;28;20040;-71
2022/12/03 00:02:33;;;;;;;73.03;20.85;;;;;;;;;;5052852;28;20112;-71
2022/12/03 00:04:59;;;;;;;54.15;18.45;;;;;;;;;;5054255;28;20037;-71
2022/12/03 00:07:25;;;;;;;61.58;19.00;;;;;;;;;;5052929;28;20048;-70
2022/12/03 00:09:51;;;;;;;60.72;19.15;;;;;;;;;;5035987;28;20080;-70
2022/12/03 00:12:17;;;;;;;59.00;19.05;;;;;;;;;;5053061;28;20037;-70
2022/12/03 00:14:43;;;;;;;52.40;18.00;;;;;;;;;;5054387;28;20481;-70
2022/12/03 00:17:09;;;;;;;60.03;18.38;;;;;;;;;;5053974;28;20444;-71
2022/12/03 00:19:35;;;;;;;52.10;17.27;;;;;;;;;;5055205;28;20103;-71
2022/12/03 00:22:01;;;;;;;58.55;18.75;;;;;;;;;;5057005;28;20097;-71
2022/12/03 00:24:27;;;;;;;50.75;16.08;;;;;;;;;;5038592;28;20044;-71
2022/12/03 00:26:53;;;;;;;44.67;15.20;;;;;;;;;;5054872;28;20094;-71
2022/12/03 00:29:19;;;;;;;45.83;15.30;;;;;;;;;;5053891;28;20422;-71
2022/12/03 00:31:45;;;;;;;49.42;16.58;;;;;;;;;;5054199;28;20037;-71
2022/12/03 00:34:11;;;;;;;46.40;15.40;;;;;;;;;;5052832;28;20071;-71
2022/12/03 00:36:38;;;;;;;41.38;13.70;;;;;;;;;;5054505;28;20065;-71
2022/12/03 00:39:04;;;;;;;40.83;13.43;;;;;;;;;;5053751;28;20067;-71
2022/12/03 00:41:30;;;;;;;45.83;13.73;;;;;;;;;;5052106;28;20088;-71
2022/12/03 00:43:56;;;;;;;35.97;13.27;;;;;;;;;;5052532;28;20362;-71
2022/12/03 00:46:23;;;;;;;32.75;13.45;;;;;;;;;;5035554;28;20040;-70
2022/12/03 00:48:49;;;;;;;38.72;14.25;;;;;;;;;;5053473;28;20051;-70
2022/12/03 00:51:15;;;;;;;35.35;12.45;;;;;;;;;;5035451;28;20041;-70
2022/12/03 00:53:41;;;;;;;33.55;12.23;;;;;;;;;;5053120;28;20484;-70
2022/12/03 00:56:08;;;;;;;34.63;12.52;;;;;;;;;;5052278;28;20339;-71
2022/12/03 00:58:34;;;;;;;38.15;13.38;;;;;;;;;;5051796;28;20501;-70
2022/12/03 01:01:00;;;;;;;38.72;13.27;;;;;;;;;;5053073;28;20655;-70
2022/12/03 01:03:26;;;;;;;36.15;12.45;;;;;;;;;;5015637;28;20375;-70
2022/12/03 01:05:52;;;;;;;32.72;13.18;;;;;;;;;;5033242;28;20047;-70
2022/12/03 01:08:18;;;;;;;31.58;12.65;;;;;;;;;;5051707;28;20044;-70
2022/12/03 01:10:44;;;;;;;39.63;13.70;;;;;;;;;;5051488;28;20060;-70
2022/12/03 01:13:10;;;;;;;32.05;12.05;;;;;;;;;;5051704;28;20111;-70
2022/12/03 01:15:36;;;;;;;33.97;12.65;;;;;;;;;;5052760;28;20041;-71
2022/12/03 01:18:02;;;;;;;31.05;11.35;;;;;;;;;;5053127;28;20037;-70
2022/12/03 01:20:28;;;;;;;33.38;12.13;;;;;;;;;;5053123;28;20047;-70
2022/12/03 01:22:54;;;;;;;32.45;12.80;;;;;;;;;;5031917;28;20045;-71
2022/12/03 01:25:20;;;;;;;34.45;12.75;;;;;;;;;;5006725;28;20499;-71
2022/12/03 01:27:47;;;;;;;31.30;11.48;;;;;;;;;;5035066;28;20075;-71
2022/12/03 01:30:13;;;;;;;38.05;12.10;;;;;;;;;;5051701;28;20041;-71
2022/12/03 01:32:39;;;;;;;30.00;12.40;;;;;;;;;;5051435;28;20079;-71
2022/12/03 01:35:05;;;;;;;36.67;12.18;;;;;;;;;;5052708;28;20076;-71
2022/12/03 01:37:31;;;;;;;32.42;13.20;;;;;;;;;;5034983;28;20102;-71
2022/12/03 01:39:57;;;;;;;42.47;13.10;;;;;;;;;;5051733;28;20052;-71
2022/12/03 01:42:29;;;;;;;33.60;12.10;;;;;;;;;;5053751;28;20041;-71
2022/12/03 01:44:57;;;;;;;33.55;12.77;;;;;;;;;;5056899;28;20044;-71
2022/12/03 01:47:43;;;;;;;31.80;12.20;;;;;;;;;;5055437;28;20045;-71
2022/12/03 01:50:22;;;;;;;34.92;12.80;;;;;;;;;;5055625;28;20060;-71
2022/12/03 01:52:48;;;;;;;34.42;12.80;;;;;;;;;;5055307;28;20041;-70
2022/12/03 01:55:17;;;;;;;33.80;13.43;;;;;;;;;;5055525;28;20045;-71
2022/12/03 01:57:48;;;;;;;33.72;13.77;;;;;;;;;;5055043;28;20049;-71
2022/12/03 02:00:15;;;;;;;36.53;13.95;;;;;;;;;;5055488;28;20041;-71
2022/12/03 02:02:41;;;;;;;40.22;13.75;;;;;;;;;;5055238;28;20041;-71
2022/12/03 02:05:31;;;;;;;34.28;12.23;;;;;;;;;;5038687;28;20045;-71
2022/12/03 02:07:57;;;;;;;37.53;14.13;;;;;;;;;;5046951;28;20052;-71
2022/12/03 02:10:25;;;;;;;33.17;12.63;;;;;;;;;;5055968;28;20106;-71
2022/12/03 02:12:54;;;;;;;38.47;12.80;;;;;;;;;;5054641;28;20059;-71
2022/12/03 02:15:21;;;;;;;34.63;13.48;;;;;;;;;;5055319;28;20045;-70
2022/12/03 02:17:47;;;;;;;35.65;12.70;;;;;;;;;;5056306;28;20041;-70
2022/12/03 02:20:13;;;;;;;28.48;12.75;;;;;;;;;;5055057;28;20044;-70
2022/12/03 02:22:39;;;;;;;31.65;12.65;;;;;;;;;;5056073;28;20053;-70
2022/12/03 02:25:19;;;;;;;37.20;13.43;;;;;;;;;;5054843;28;20049;-70
2022/12/03 02:27:46;;;;;;;32.80;12.90;;;;;;;;;;5056010;28;20064;-70
2022/12/03 02:30:14;;;;;;;33.53;12.43;;;;;;;;;;5054813;28;20511;-70
2022/12/03 02:32:40;;;;;;;34.33;13.93;;;;;;;;;;5054504;28;20044;-70
2022/12/03 02:35:12;;;;;;;32.22;12.25;;;;;;;;;;5055805;28;20037;-71
2022/12/03 02:37:38;;;;;;;35.95;13.82;;;;;;;;;;5054556;28;20520;-71
2022/12/03 02:40:10;;;;;;;40.60;13.48;;;;;;;;;;5054514;28;20186;-70
2022/12/03 02:42:36;;;;;;;35.37;13.60;;;;;;;;;;5054615;28;20045;-71
2022/12/03 02:45:11;;;;;;;33.08;13.05;;;;;;;;;;5055517;28;20283;-71
2022/12/03 02:47:41;;;;;;;30.10;13.98;;;;;;;;;;5038170;28;20059;-71
2022/12/03 02:50:08;;;;;;;36.30;13.45;;;;;;;;;;5054465;28;20146;-71
2022/12/03 02:52:34;;;;;;;38.53;13.93;;;;;;;;;;5054230;28;20041;-71
2022/12/03 02:55:02;;;;;;;35.58;13.20;;;;;;;;;;5054081;28;20045;-71
2022/12/03 02:57:28;;;;;;;35.85;13.02;;;;;;;;;;5054545;28;20477;-71
2022/12/03 02:59:54;;;;;;;32.35;12.85;;;;;;;;;;5037405;28;20120;-71
2022/12/03 03:02:20;;;;;;;40.13;14.20;;;;;;;;;;5054436;28;20095;-71
2022/12/03 03:04:47;;;;;;;40.33;13.90;;;;;;;;;;5054013;28;20081;-71
2022/12/03 03:07:13;;;;;;;38.63;13.02;;;;;;;;;;5037364;28;20083;-71
2022/12/03 03:09:39;;;;;;;36.25;14.10;;;;;;;;;;5053732;28;20065;-71
2022/12/03 03:12:05;;;;;;;39.75;13.85;;;;;;;;;;5037588;28;20072;-71
2022/12/03 03:14:32;;;;;;;36.65;13.20;;;;;;;;;;5053646;28;20048;-71
2022/12/03 03:16:58;;;;;;;35.70;13.32;;;;;;;;;;5055311;28;20041;-70
2022/12/03 03:19:25;;;;;;;33.85;11.73;;;;;;;;;;5053886;28;20033;-70
2022/12/03 03:21:52;;;;;;;33.83;13.25;;;;;;;;;;5053821;28;20036;-71
2022/12/03 03:24:18;;;;;;;38.30;13.35;;;;;;;;;;5087475;28;20151;-71
2022/12/03 03:26:44;;;;;;;35.85;13.50;;;;;;;;;;5033757;28;20045;-71
2022/12/03 03:29:11;;;;;;;32.53;12.07;;;;;;;;;;5033884;28;20056;-71
2022/12/03 03:31:37;;;;;;;34.08;13.43;;;;;;;;;;5051942;28;20049;-71
2022/12/03 03:34:04;;;;;;;40.17;13.20;;;;;;;;;;5087118;28;20048;-71
2022/12/03 03:36:30;;;;;;;38.40;13.15;;;;;;;;;;5053178;28;20123;-71
2022/12/03 03:38:56;;;;;;;37.17;13.75;;;;;;;;;;5053478;28;20041;-71
2022/12/03 03:41:25;;;;;;;38.33;14.73;;;;;;;;;;5054799;28;20099;-70
2022/12/03 03:43:51;;;;;;;38.80;14.43;;;;;;;;;;5053536;28;20040;-71
2022/12/03 03:46:17;;;;;;;36.22;14.63;;;;;;;;;;5037095;28;20045;-70
2022/12/03 03:48:43;;;;;;;38.88;14.77;;;;;;;;;;5053144;28;20076;-71
2022/12/03 03:51:10;;;;;;;34.00;12.77;;;;;;;;;;5077453;28;20048;-71
2022/12/03 03:53:38;;;;;;;38.92;14.82;;;;;;;;;;5043595;28;20041;-69
2022/12/03 03:56:05;;;;;;;32.88;13.50;;;;;;;;;;5054337;28;20136;-70
2022/12/03 03:58:31;;;;;;;34.85;15.05;;;;;;;;;;5054382;28;20044;-69
2022/12/03 04:00:57;;;;;;;38.25;14.23;;;;;;;;;;5052909;28;20127;-70
2022/12/03 04:03:23;;;;;;;33.35;14.05;;;;;;;;;;5052878;28;20120;-70
2022/12/03 04:05:49;;;;;;;39.80;13.68;;;;;;;;;;5053007;28;20045;-70
2022/12/03 04:08:16;;;;;;;37.88;13.43;;;;;;;;;;5051501;28;20179;-71
2022/12/03 04:13:27;;;;;;;36.15;14.38;;;;;;;;;;5033135;28;20537;-70
2022/12/03 04:15:53;;;;;;;40.55;13.93;;;;;;;;;;5016616;28;20371;-70
2022/12/03 04:23:48;;;;;;;37.60;14.50;;;;;;;;;;5053136;28;20400;-66
2022/12/03 04:28:59;;;;;;;38.28;13.95;;;;;;;;;;5052676;28;20044;-67
2022/12/03 04:36:55;;;;;;;37.17;14.52;;;;;;;;;;5036578;28;20037;-67
2022/12/03 04:39:21;;;;;;;38.17;14.60;;;;;;;;;;5052791;28;20130;-67
2022/12/03 04:41:47;;;;;;;33.40;14.15;;;;;;;;;;5052160;28;20044;-67
2022/12/03 04:46:58;;;;;;;46.45;16.73;;;;;;;;;;5053529;28;20053;-67
2022/12/03 04:49:24;;;;;;;39.83;17.02;;;;;;;;;;5032318;28;20044;-66
2022/12/03 04:51:50;;;;;;;37.05;15.27;;;;;;;;;;5051293;28;20033;-66
2022/12/03 04:54:16;;;;;;;43.78;16.10;;;;;;;;;;5051919;28;20072;-66
2022/12/03 04:56:42;;;;;;;44.38;16.67;;;;;;;;;;5052438;28;20580;-66
2022/12/03 04:59:08;;;;;;;47.33;17.40;;;;;;;;;;5053277;28;20042;-66
2022/12/03 05:01:34;;;;;;;46.55;16.88;;;;;;;;;;5053188;28;20033;-66
2022/12/03 05:04:00;;;;;;;42.00;17.40;;;;;;;;;;5051965;28;20056;-67
2022/12/03 05:06:26;;;;;;;48.60;16.00;;;;;;;;;;5052273;28;20044;-66
2022/12/03 05:08:52;;;;;;;44.15;15.45;;;;;;;;;;5053018;28;20045;-66
2022/12/03 05:11:18;;;;;;;42.72;16.48;;;;;;;;;;5053056;28;20048;-67
2022/12/03 05:13:44;;;;;;;39.83;15.77;;;;;;;;;;5051733;28;20068;-67
2022/12/03 05:16:10;;;;;;;42.95;15.80;;;;;;;;;;5035463;28;20089;-67
2022/12/03 05:18:36;;;;;;;46.92;16.92;;;;;;;;;;5034894;28;20044;-66
2022/12/03 05:21:02;;;;;;;48.78;17.15;;;;;;;;;;5051730;28;20554;-67
2022/12/03 05:23:29;;;;;;;42.63;16.60;;;;;;;;;;5051752;28;20076;-66
2022/12/03 05:25:55;;;;;;;43.50;16.10;;;;;;;;;;5052224;28;20453;-66
2022/12/03 05:28:23;;;;;;;51.50;17.13;;;;;;;;;;5051676;28;20128;-67
2022/12/03 05:30:49;;;;;;;44.88;15.60;;;;;;;;;;5052798;28;20097;-67
2022/12/03 05:33:15;;;;;;;46.00;17.23;;;;;;;;;;5052935;28;20053;-67
2022/12/03 05:35:41;;;;;;;44.78;17.13;;;;;;;;;;5051657;28;20562;-66
2022/12/03 05:38:07;;;;;;;47.45;17.08;;;;;;;;;;5051690;28;20087;-67
2022/12/03 05:40:33;;;;;;;49.55;16.95;;;;;;;;;;5051615;28;20041;-66
2022/12/03 05:43:02;;;;;;;49.10;17.02;;;;;;;;;;5034701;28;20037;-67
2022/12/03 05:45:33;;;;;;;46.15;16.05;;;;;;;;;;5051842;28;20393;-67
2022/12/03 05:47:59;;;;;;;47.22;17.25;;;;;;;;;;5051464;28;20040;-67
2022/12/03 05:50:27;;;;;;;49.25;17.25;;;;;;;;;;5051319;28;20033;-67
2022/12/03 05:52:53;;;;;;;40.03;15.35;;;;;;;;;;5051199;28;20457;-67
2022/12/03 05:55:19;;;;;;;62.70;19.15;;;;;;;;;;5085178;28;20044;-67
2022/12/03 05:57:46;;;;;;;47.60;17.52;;;;;;;;;;5051883;28;20037;-67
2022/12/03 06:00:13;;;;;;;45.15;16.75;;;;;;;;;;5052656;28;20037;-67
2022/12/03 06:02:40;;;;;;;42.22;16.17;;;;;;;;;;5052372;28;20385;-67
2022/12/03 06:05:06;;;;;;;49.53;17.48;;;;;;;;;;5051825;28;20111;-67
2022/12/03 06:07:32;;;;;;;45.20;16.98;;;;;;;;;;5051202;28;20037;-67
2022/12/03 06:09:58;;;;;;;42.17;15.70;;;;;;;;;;5052037;28;20053;-67
2022/12/03 06:12:24;;;;;;;44.30;15.82;;;;;;;;;;5052110;28;20037;-66
2022/12/03 06:14:51;;;;;;;46.67;18.15;;;;;;;;;;5050687;28;20515;-66
2022/12/03 06:17:17;;;;;;;42.97;15.73;;;;;;;;;;5052396;28;20393;-67
2022/12/03 06:19:43;;;;;;;41.08;15.43;;;;;;;;;;5050979;28;20114;-66
2022/12/03 06:22:09;;;;;;;48.28;17.13;;;;;;;;;;5052121;28;20078;-67
2022/12/03 06:24:35;;;;;;;38.05;14.48;;;;;;;;;;5051045;28;20037;-66
2022/12/03 06:27:01;;;;;;;45.17;14.82;;;;;;;;;;5051253;28;20436;-67
2022/12/03 06:29:27;;;;;;;43.72;14.98;;;;;;;;;;5054786;28;20048;-67
2022/12/03 06:31:53;;;;;;;45.88;15.60;;;;;;;;;;5055169;28;20045;-67
2022/12/03 06:34:19;;;;;;;42.97;14.23;;;;;;;;;;5054598;28;20116;-67
2022/12/03 06:36:46;;;;;;;44.30;15.18;;;;;;;;;;5054178;28;20037;-67
2022/12/03 06:39:12;;;;;;;46.53;15.43;;;;;;;;;;5054364;28;20202;-69
2022/12/03 06:41:38;;;;;;;44.67;15.57;;;;;;;;;;5054779;28;20044;-67
2022/12/03 06:44:04;;;;;;;42.08;15.15;;;;;;;;;;5054065;28;20059;-67
2022/12/03 06:46:30;;;;;;;44.78;15.95;;;;;;;;;;5054555;28;20120;-67
2022/12/03 06:48:56;;;;;;;45.45;15.15;;;;;;;;;;5055771;28;20374;-67
2022/12/03 06:51:22;;;;;;;42.10;15.48;;;;;;;;;;5037703;28;20048;-67
2022/12/03 06:53:49;;;;;;;44.95;15.45;;;;;;;;;;5055524;28;20392;-67
2022/12/03 06:56:15;;;;;;;40.65;15.52;;;;;;;;;;5054668;28;20064;-67
2022/12/03 06:58:41;;;;;;;43.58;15.65;;;;;;;;;;5038110;28;20037;-67
2022/12/03 07:01:10;;;;;;;40.60;14.23;;;;;;;;;;5055340;28;20072;-67
2022/12/03 07:03:36;;;;;;;37.25;14.65;;;;;;;;;;5054432;28;20144;-67
2022/12/03 07:06:17;;;;;;;35.70;14.73;;;;;;;;;;5021711;28;20049;-67
2022/12/03 07:08:43;;;;;;;39.97;14.38;;;;;;;;;;5055199;28;20045;-66
2022/12/03 07:11:29;;;;;;;41.83;14.55;;;;;;;;;;5053663;28;20588;-66
2022/12/03 07:13:56;;;;;;;46.60;15.15;;;;;;;;;;5053574;28;20052;-66
2022/12/03 07:16:22;;;;;;;43.22;14.85;;;;;;;;;;5037035;28;20049;-66
2022/12/03 07:18:48;;;;;;;38.28;14.32;;;;;;;;;;5054089;28;20041;-67
2022/12/03 07:21:14;;;;;;;43.35;15.75;;;;;;;;;;5054929;28;20047;-66
2022/12/03 07:23:40;;;;;;;43.47;14.52;;;;;;;;;;5053566;28;20048;-66
2022/12/03 07:26:07;;;;;;;42.55;15.10;;;;;;;;;;5054756;28;20044;-66
2022/12/03 07:28:33;;;;;;;39.78;14.82;;;;;;;;;;5055082;28;20080;-67
2022/12/03 07:30:59;;;;;;;42.78;15.15;;;;;;;;;;5053367;28;20040;-67
2022/12/03 07:33:25;;;;;;;48.45;15.25;;;;;;;;;;5053464;28;20102;-66
2022/12/03 07:35:51;;;;;;;38.05;14.60;;;;;;;;;;5054477;28;20343;-66
2022/12/03 07:38:17;;;;;;;41.58;14.30;;;;;;;;;;5053209;28;20043;-67
2022/12/03 07:40:44;;;;;;;44.85;15.77;;;;;;;;;;5053934;28;20037;-66
2022/12/03 07:43:10;;;;;;;42.97;14.95;;;;;;;;;;5053462;28;20187;-67
2022/12/03 07:45:36;;;;;;;41.38;14.20;;;;;;;;;;5053196;28;20497;-69
2022/12/03 07:48:02;;;;;;;37.78;13.73;;;;;;;;;;5052720;28;20040;-69
2022/12/03 07:50:28;;;;;;;41.85;14.38;;;;;;;;;;5086431;28;20036;-66
2022/12/03 07:52:54;;;;;;;41.53;14.60;;;;;;;;;;5050299;28;20117;-66
2022/12/03 07:55:21;;;;;;;44.40;14.25;;;;;;;;;;5054236;28;20063;-67
2022/12/03 07:57:47;;;;;;;43.03;15.32;;;;;;;;;;5036364;28;20040;-66
2022/12/03 08:00:13;;;;;;;40.88;15.23;;;;;;;;;;5036088;28;20342;-67
2022/12/03 08:02:40;;;;;;;46.38;15.93;;;;;;;;;;5052116;28;20112;-67
2022/12/03 08:05:06;;;;;;;38.05;14.52;;;;;;;;;;5050088;28;20079;-67
2022/12/03 08:07:32;;;;;;;44.40;15.68;;;;;;;;;;5052066;28;20119;-67
2022/12/03 08:09:58;;;;;;;41.97;14.18;;;;;;;;;;5052183;28;20052;-67
2022/12/03 08:12:38;;;;;;;39.05;14.50;;;;;;;;;;5053336;28;20060;-67
2022/12/03 08:15:11;;;;;;;49.08;17.10;;;;;;;;;;5053629;28;20044;-67
2022/12/03 08:17:41;;;;;;;40.45;15.15;;;;;;;;;;5051999;28;20041;-67
2022/12/03 08:20:14;;;;;;;42.85;14.93;;;;;;;;;;5051256;28;20041;-67
2022/12/03 08:22:41;;;;;;;42.08;15.65;;;;;;;;;;5049069;28;20038;-66
2022/12/03 08:25:19;;;;;;;51.40;16.77;;;;;;;;;;5053638;28;20495;-67
2022/12/03 08:27:46;;;;;;;41.67;14.52;;;;;;;;;;5052535;28;20431;-67
2022/12/03 08:30:16;;;;;;;42.25;14.73;;;;;;;;;;5053657;28;20049;-66
2022/12/03 08:32:42;;;;;;;43.90;15.75;;;;;;;;;;5052733;28;20377;-67
2022/12/03 08:35:13;;;;;;;41.17;14.65;;;;;;;;;;5053707;28;20041;-67
2022/12/03 08:37:39;;;;;;;45.33;15.75;;;;;;;;;;5052461;28;20045;-67
2022/12/03 08:40:19;;;;;;;44.17;15.05;;;;;;;;;;5032304;28;20047;-67
2022/12/03 08:42:45;;;;;;;38.95;15.60;;;;;;;;;;5034038;28;20401;-67
2022/12/03 08:45:38;;;;;;;39.35;14.50;;;;;;;;;;5052530;28;20051;-67
2022/12/03 08:48:27;;;;;;;44.58;15.63;;;4.10;99.90;;;;;;5035909;28;20049;-67
2022/12/03 08:50:58;;;;;;;45.30;15.27;;;;;;;;;;5051972;28;20048;-67
2022/12/03 08:53:45;;;;;;;49.03;17.08;;;;;;;;;;5052062;28;20037;-67
2022/12/03 08:56:11;;;;;;;43.60;14.50;;;;;;;;;;5053476;28;20041;-67
2022/12/03 08:58:39;;;;;;;47.38;15.48;;;;;;;;;;5035348;28;20036;-67
2022/12/03 09:01:15;;;;;;;41.38;14.30;;;;;;;;;;5052035;28;20037;-67
2022/12/03 09:03:51;;;;;;;45.78;14.35;;;;;;;;;;5053289;28;20072;-67
2022/12/03 09:06:17;;;;;;;43.83;14.15;;;;;;;;;;5051923;28;20111;-67
2022/12/03 09:08:43;;;;;;;38.47;14.05;;;;;;;;;;5035038;28;20102;-67
2022/12/03 09:11:09;;;;;;;42.28;15.48;;;;;;;;;;5052939;28;20080;-67
2022/12/03 09:13:36;;;;;;;41.83;15.32;;;;;;;;;;5049720;28;20048;-67
2022/12/03 09:16:02;;;;;;;43.67;15.75;;;;;;;;;;5049896;28;20043;-67
2022/12/03 09:18:28;;;;;;;42.63;15.48;;;;;;;;;;5050944;28;20363;-67
2022/12/03 09:20:55;;;;;;;47.38;15.45;;;;;;;;;;5051126;28;20144;-66
2022/12/03 09:23:21;;;;;;;44.20;16.25;;;;;;;;;;5050904;28;20041;-66
2022/12/03 09:25:47;;;;;;;43.53;15.57;;;;;;;;;;5044856;28;20037;-66
2022/12/03 09:28:13;;;;;;;42.42;16.25;;;;;;;;;;5051063;28;20481;-66
2022/12/03 09:30:39;;;;;;;49.33;17.73;;;;;;;;;;5040310;28;20409;-67
2022/12/03 09:33:05;;;;;;;47.97;16.60;;;;;;;;;;5051672;28;20123;-67
2022/12/03 09:35:31;;;;;;;50.45;17.35;;;;;;;;;;5051872;28;20068;-67
2022/12/03 09:37:58;;;;;;;43.72;15.35;;;;;;;;;;5051949;28;20063;-67
2022/12/03 09:40:24;;;;;;;48.70;16.48;;;;;;;;;;5034837;28;20040;-67
2022/12/03 09:42:50;;;;;;;50.03;16.65;;;;;;;;;;5051645;28;20089;-67
2022/12/03 09:45:17;;;;;;;43.42;15.65;;;;;;;;;;5051443;28;20475;-67
2022/12/03 09:47:47;;;;;;;51.83;16.35;;;;;;;;;;5053014;28;20121;-67
2022/12/03 09:50:14;;;;;;;51.63;16.40;;;;;;;;;;5051377;28;20089;-67
2022/12/03 09:52:40;;;;;;;48.95;17.15;;;;;;;;;;5051588;28;20532;-67
2022/12/03 09:55:17;;;;;;;49.40;16.63;;;;;;;;;;5034159;28;20052;-67
2022/12/03 09:57:44;;;;;;;55.85;17.90;;;;;;;;;;5052300;28;20170;-67
2022/12/03 10:00:18;;;;;;;49.22;16.30;;;;;;;;;;5052335;28;20123;-66
2022/12/03 10:02:44;;;;;;;48.65;16.00;;;;;;;;;;5053354;28;20041;-66
2022/12/03 10:05:10;;;;;;;48.13;17.42;;;;;;;;;;5056103;28;20051;-67
2022/12/03 10:07:37;;;;;;;50.00;17.25;;;;;;;;;;5056560;28;20365;-67
2022/12/03 10:10:03;;;;;;;51.83;17.17;;;;;;;;;;5054713;28;20056;-67
2022/12/03 10:12:29;;;;;;;53.15;18.33;;;;;;;;;;5055112;28;20040;-67
2022/12/03 10:14:55;;;;;;;57.00;17.25;;;;;;;;;;5055591;28;20072;-67
2022/12/03 10:17:21;;;;;;;48.58;16.77;;;;;;;;;;5056145;28;20485;-67
2022/12/03 10:19:47;;;;;;;61.92;19.27;;;;;;;;;;5054406;28;20083;-67
2022/12/03 10:22:14;;;;;;;60.13;19.10;;;;;;;;;;5055885;28;20033;-70
2022/12/03 10:24:40;;;;;;;54.13;18.92;;;;;;;;;;5055339;28;20052;-70
2022/12/03 10:27:22;;;;;;;55.08;19.52;;;;;;;;;;5037986;28;20041;-70
2022/12/03 10:29:55;;;;;;;;;;;3.90;99.90;;;;;;5054928;28;20037;-70
2022/12/03 10:32:25;;;;;;;59.15;18.38;;;;;;;;;;5055882;28;19920;-70
2022/12/03 10:35:05;;;;;;;54.80;18.15;;;;;;;;;;5054296;28;20463;-70
2022/12/03 10:37:31;;;;;;;51.53;18.25;;;;;;;;;;5054185;28;20047;-66
2022/12/03 10:40:12;;;;;;;55.22;18.67;;;;;;;;;;5054725;28;20033;-67
2022/12/03 10:42:39;;;;;;;59.17;18.60;;;;;;;;;;5055884;28;20041;-67
2022/12/03 10:45:08;;;;;;;51.28;17.55;;;;;;;;;;5054208;28;20041;-67
2022/12/03 10:47:34;;;;;;;48.95;17.02;;;;;;;;;;5055249;28;20090;-67
2022/12/03 10:50:02;;;;;;;50.38;17.05;;;;;;;;;;5054492;28;20049;-66
2022/12/03 10:52:28;;;;;;;57.63;18.48;;;;;;;;;;5054643;28;20055;-67
2022/12/03 10:54:54;;;;;;;58.80;19.45;;;;;;;;;;5055244;28;20401;-66
2022/12/03 10:57:20;;;;;;;50.05;17.90;;;;;;;;;;5037679;28;20183;-67
2022/12/03 10:59:49;;;;;;;43.53;16.98;;;;;;;;;;5050543;28;20091;-67
2022/12/03 11:02:19;;;;;;;53.38;18.52;;;;;;;;;;5037495;28;20041;-66
2022/12/03 11:04:46;;;;;;;56.00;18.70;;;;;;;;;;5053880;28;20045;-67
2022/12/03 11:07:16;;;;;;;58.33;18.48;;;;;;;;;;5055387;28;20033;-67
2022/12/03 11:09:46;;;;;;;52.17;17.60;;;;;;;;;;5054425;28;20083;-67
2022/12/03 11:12:19;;;;;;;57.53;19.02;;;;;;;;;;5053853;28;20529;-67
2022/12/03 11:14:54;;;;;;;54.45;17.98;;;;;;;;;;5054604;28;20090;-67
2022/12/03 11:17:39;;;;;;;52.28;18.63;;;;;;;;;;5037415;28;20045;-67
2022/12/03 11:20:09;;;;;;;52.45;18.20;;;;;;;;;;5037354;28;20405;-67
2022/12/03 11:22:39;;;;;;;53.05;18.15;;;;;;;;;;5053504;28;20041;-67
2022/12/03 11:25:32;;;;;;;52.75;18.10;;;;;;;;;;5054477;28;20047;-67
2022/12/03 11:28:13;;;;;;;52.47;17.90;;;;;;;;;;5031846;28;20319;-67
2022/12/03 11:30:48;;;;;;;56.72;18.08;;;;;;;;;;5052932;28;20049;-67
2022/12/03 11:33:21;;;;;;;56.33;17.00;;;;;;;;;;5051452;28;20078;-67
2022/12/03 11:36:02;;;;;;;47.75;17.25;;;;;;;;;;5034554;28;20037;-67
2022/12/03 11:38:40;;;;;;;58.40;19.50;;;;;;;;;;5075066;28;20566;-67
2022/12/03 11:41:11;;;;;;;56.50;18.67;;;;;;;;;;5053127;28;20037;-67
2022/12/03 11:43:54;;;;;;;58.42;17.92;;;;;;;;;;5051951;28;20090;-67
2022/12/03 11:46:41;;;;;;;58.80;18.42;;;;;;;;;;5068084;28;20486;-67
2022/12/03 11:49:22;;;;;;;53.88;18.30;;;;;;;;;;5033388;28;20045;-67
2022/12/03 11:51:48;;;;;;;50.85;17.67;;;;;;;;;;5033441;28;20053;-67
2022/12/03 11:54:18;;;;;;;54.67;19.02;;;;;;;;;;5041438;28;20041;-67
2022/12/03 11:56:46;;;;;;;57.00;19.42;;;;;;;;;;5054805;28;20073;-67
2022/12/03 11:59:12;;;;;;;59.47;20.15;;;;;;;;;;5053306;28;20048;-67
2022/12/03 12:01:40;;;;;;;63.30;21.60;;;;;;;;;;5053101;28;20052;-67
2022/12/03 12:04:06;;;;;;;54.55;18.42;;;;;;;;;;5053030;28;20051;-67
2022/12/03 12:06:40;;;;;;;53.33;18.90;;;;;;;;;;5054214;28;20047;-67
2022/12/03 12:09:06;;;;;;;60.75;20.02;;;;;;;;;;5054358;28;20048;-67
2022/12/03 12:11:33;;;;;;;56.17;19.95;;;;;;;;;;5053931;28;20049;-67
2022/12/03 12:14:01;;;;;;;55.00;17.63;;;;;;;;;;5051917;28;20068;-67
2022/12/03 12:16:36;;;;;;;60.08;17.05;;;;;;;;;;5051912;28;20083;-66
2022/12/03 12:19:21;;;;;;;60.85;20.23;;;;;;;;;;5052405;28;20048;-67
2022/12/03 12:21:48;;;;;;;57.92;17.90;;;;;;;;;;5051310;28;20066;-67
2022/12/03 12:24:47;;;;;;;59.15;19.23;;;;;;;;;;5048501;28;20045;-67
2022/12/03 12:27:33;;;;;;;54.78;18.40;;;;;;;;;;5043607;28;20053;-67
2022/12/03 12:30:00;;;;;;;60.33;18.90;;;;;;;;;;5052033;28;20052;-67
2022/12/03 12:32:34;;;;;;;53.47;20.20;;;;;;;;;;5052561;28;20075;-67
2022/12/03 12:35:19;;;;;;;59.08;18.15;;;;;;;;;;5052478;28;20061;-66
2022/12/03 12:37:55;;;;;;;58.78;18.30;;;;;;;;;;5052444;28;20040;-66
2022/12/03 12:40:26;;;;;;;60.65;19.83;;;;;;;;;;5052357;28;20584;-67
2022/12/03 12:42:53;;;;;;;57.03;18.17;;;;;;;;;;5052482;28;20129;-67
2022/12/03 12:45:21;;;;;;;56.38;18.25;;;;;;;;;;5052486;28;20539;-71
2022/12/03 12:47:57;;;;;;;52.88;18.90;;;;;;;;;;5053656;28;20044;-71
2022/12/03 12:50:24;;;;;;;64.15;20.00;;;;;;;;;;5053438;28;20044;-67
2022/12/03 12:52:57;;;;;;;70.85;21.85;;;;;;;;;;5051789;28;20029;-67
2022/12/03 12:55:23;;;;;;;60.92;19.15;;;;;;;;;;5049099;28;20125;-67
2022/12/03 12:57:49;;;;;;;58.00;19.50;;;;;;;;;;5050112;28;20052;-67
2022/12/03 13:00:24;;;;;;;52.67;17.73;;;;;;;;;;5050764;28;20040;-67
2022/12/03 13:03:01;;;;;;;64.55;18.15;;;;;;;;;;5031876;28;20126;-67
2022/12/03 13:05:47;;;;;;;58.38;20.67;;;;;;;;;;5049881;28;20052;-66
2022/12/03 13:08:13;;;;;;;58.25;20.08;;;;;;;;;;5074481;28;20045;-66
2022/12/03 13:10:40;;;;;;;64.38;20.25;;;;;;;;;;5049996;28;20512;-67
2022/12/03 13:13:22;;;;;;;59.20;19.67;;;;;;;;;;5050292;28;20067;-67
2022/12/03 13:15:51;;;;;;;58.33;20.25;;;;;;;;;;5050466;28;20110;-67
2022/12/03 13:18:37;;;;;;;64.65;21.02;;;;;;;;;;5051505;28;20397;-67
2022/12/03 13:21:10;;;;;;;60.95;19.02;;;;;;;;;;5045304;28;20056;-66
2022/12/03 13:23:37;;;;;;;61.58;20.60;;;;;;;;;;5050983;28;20116;-66
2022/12/03 13:26:10;;;;;;;65.30;22.85;;;;;;;;;;5051293;28;20056;-67
2022/12/03 13:28:36;;;;;;;57.38;19.70;;;;;;;;;;5050396;28;20482;-66
2022/12/03 13:31:16;;;;;;;64.88;21.27;;;;;;;;;;5050578;28;20029;-66
2022/12/03 13:33:42;;;;;;;57.53;19.85;;;;;;;;;;5079465;28;20056;-68
2022/12/03 13:36:12;;;;;;;57.22;19.67;;;;;;;;;;5049391;28;20415;-66
2022/12/03 13:38:38;;;;;;;65.68;21.83;;;;;;;;;;5050628;28;20041;-67
2022/12/03 13:41:04;;;;;;;60.92;20.30;;;;;;;;;;5055411;28;20382;-67
2022/12/03 13:43:32;;;;;;;62.33;20.25;;;;;;;;;;5054462;28;20082;-67
2022/12/03 13:45:59;;;;;;;65.50;21.42;;;;;;;;;;5055436;28;20377;-70
2022/12/03 13:48:28;;;;;;;66.88;20.98;;;;;;;;;;5052865;28;20032;-71
2022/12/03 13:50:54;;;;;;;62.30;19.90;;;;;;;;;;5054193;28;20044;-71
2022/12/03 13:53:27;;;;;;;69.65;21.85;;;;;;;;;;5053861;28;20098;-71
2022/12/03 13:56:14;;;;;;;71.30;21.83;;;;;;;;;;5055033;28;20029;-67
2022/12/03 13:58:40;;;;;;;66.45;20.85;;;;;;;;;;5047080;28;20041;-67
2022/12/03 14:01:06;;;;;;;62.90;21.85;;;;;;;;;;5037395;28;20044;-67
2022/12/03 14:03:32;;;;;;;65.45;20.15;;;;;;;;;;5054252;28;20033;-67
2022/12/03 14:05:58;;;;;;;65.65;22.05;;;;;;;;;;5054383;28;20382;-66
2022/12/03 14:08:24;;;;;;;63.33;21.63;;;;;;;;;;5055635;28;20068;-65
2022/12/03 14:10:50;;;;;;;64.55;20.85;;;;;;;;;;5054062;28;20041;-66
2022/12/03 14:13:16;;;;;;;72.55;21.52;;;;;;;;;;5080042;28;20450;-66
2022/12/03 14:15:42;;;;;;;60.42;21.38;;;;;;;;;;5054974;28;20029;-66
2022/12/03 14:18:08;;;;;;;58.60;20.27;;;;;;;;;;5054331;28;20037;-66
2022/12/03 14:20:35;;;;;;;61.17;19.50;;;;;;;;;;5056076;28;20029;-66
2022/12/03 14:23:01;;;;;;;64.35;20.58;;;;;;;;;;5054742;28;20048;-67
2022/12/03 14:25:27;;;;;;;77.75;22.63;;;;;;;;;;5055545;28;20057;-66
2022/12/03 14:27:53;;;;;;;60.10;21.15;;;;;;;;;;5053813;28;20051;-66
2022/12/03 14:30:19;;;;;;;65.75;21.65;;;;;;;;;;5054818;28;20443;-66
2022/12/03 14:32:46;;;;;;;67.45;21.95;;;;;;;;;;5054219;28;20053;-66
2022/12/03 14:35:12;;;;;;;64.38;22.02;;;;;;;;;;5054167;28;20116;-66
2022/12/03 14:37:38;;;;;;;69.60;22.42;;;;;;;;;;5055029;28;20029;-66
2022/12/03 14:40:07;;;;;;;74.88;21.95;;;;;;;;;;5054918;28;20431;-66
2022/12/03 14:42:33;;;;;;;69.32;20.83;;;;;;;;;;5052095;28;20037;-67